createdAt,value
2018-08-28T00:01:30.833Z,99918.17
2018-08-28T00:03:58.468Z,99922.48
2018-08-28T00:06:26.844Z,99919.86
2018-08-28T00:08:54.456Z,99920.02
2018-08-28T00:11:22.080Z,99923.16
2018-08-28T00:13:49.726Z,99928.66
2018-08-28T00:16:17.321Z,99925.13
2018-08-28T00:18:44.940Z,99933.26
2018-08-28T00:21:12.529Z,99931.44
2018-08-28T00:23:40.512Z,99937.23
2018-08-28T00:26:08.458Z,99936.58
2018-08-28T00:28:36.489Z,99947.86
2018-08-28T00:31:04.088Z,99944.52
2018-08-28T00:33:31.663Z,99946.38
2018-08-28T00:35:59.435Z,99954.50
2018-08-28T00:38:27.003Z,99949.87
2018-08-28T00:40:54.663Z,99946.02
2018-08-28T00:43:22.248Z,99954.33
2018-08-28T00:45:49.898Z,99961.94
2018-08-28T00:48:17.581Z,99960.66
2018-08-28T00:50:45.272Z,99966.97
2018-08-28T00:53:12.935Z,99966.45
2018-08-28T00:55:40.522Z,99968.13
2018-08-28T00:58:08.739Z,99971.45
2018-08-28T01:00:36.314Z,99978.91
2018-08-28T01:03:04.178Z,99969.47
2018-08-28T01:05:31.866Z,99982.42
2018-08-28T01:07:59.475Z,99988.22
2018-08-28T01:10:27.143Z,99987.41
2018-08-28T01:12:54.894Z,99994.72
2018-08-28T01:15:22.496Z,99993.06
2018-08-28T01:17:50.091Z,99992.05
2018-08-28T01:22:52.259Z,99996.05
2018-08-28T01:25:19.885Z,99987.73
2018-08-28T01:27:47.418Z,99994.37
2018-08-28T01:30:19.668Z,100000.37
2018-08-28T01:32:47.234Z,99998.70
2018-08-28T01:35:14.870Z,100004.69
2018-08-28T01:37:42.494Z,100001.86
2018-08-28T01:40:10.112Z,100003.02
2018-08-28T01:42:37.746Z,100005.70
2018-08-28T01:45:05.848Z,100009.31
2018-08-28T01:47:33.437Z,100015.96
2018-08-28T01:50:01.026Z,100015.00
2018-08-28T01:52:28.702Z,100016.31
2018-08-28T01:54:56.389Z,100017.30
2018-08-28T01:57:24.044Z,100021.62
2018-08-28T01:59:51.660Z,100018.30
2018-08-28T02:02:19.306Z,100022.28
2018-08-28T02:04:46.903Z,100025.94
2018-08-28T02:07:14.578Z,100024.62
2018-08-28T02:09:42.329Z,100024.28
2018-08-28T02:12:10.030Z,100026.44
2018-08-28T02:14:37.560Z,100019.80
2018-08-28T02:17:05.250Z,100026.77
2018-08-28T02:19:32.845Z,100023.44
2018-08-28T02:22:00.499Z,100009.00
2018-08-28T02:24:28.096Z,100012.33
2018-08-28T02:26:55.798Z,100014.63
2018-08-28T02:29:23.455Z,100019.95
2018-08-28T02:31:51.058Z,100017.14
2018-08-28T02:34:18.635Z,100020.45
2018-08-28T02:36:46.249Z,100029.26
2018-08-28T02:39:13.857Z,100030.92
2018-08-28T02:41:41.691Z,100034.08
2018-08-28T02:44:09.327Z,100038.23
2018-08-28T02:46:37.502Z,100041.34
2018-08-28T02:49:05.374Z,100042.99
2018-08-28T02:51:33.232Z,100047.53
2018-08-28T02:54:00.870Z,100042.22
2018-08-28T02:56:28.472Z,100049.01
2018-08-28T02:58:56.464Z,100050.98
2018-08-28T03:01:25.299Z,100055.11
2018-08-28T03:03:52.907Z,100065.92
2018-08-28T03:06:20.893Z,100061.12
2018-08-28T03:08:48.637Z,100062.31
2018-08-28T03:11:16.353Z,100057.28
2018-08-28T03:13:43.954Z,100062.61
2018-08-28T03:16:11.548Z,100061.77
2018-08-28T03:18:39.181Z,100067.37
2018-08-28T03:21:06.947Z,100062.92
2018-08-28T03:23:34.758Z,100066.23
2018-08-28T03:26:02.453Z,100063.57
2018-08-28T03:28:30.111Z,100072.08
2018-08-28T03:30:57.691Z,100066.12
2018-08-28T03:33:25.307Z,100076.06
2018-08-28T03:35:53.230Z,100073.43
2018-08-28T03:38:21.067Z,100073.52
2018-08-28T03:40:48.782Z,100077.66
2018-08-28T03:43:16.434Z,100075.13
2018-08-28T03:45:44.014Z,100075.31
2018-08-28T03:48:18.527Z,100081.80
2018-08-28T03:50:46.179Z,100082.33
2018-08-28T03:53:13.904Z,100080.34
2018-08-28T03:55:41.543Z,100079.67
2018-08-28T03:58:09.255Z,100085.81
2018-08-28T04:00:36.837Z,100082.48
2018-08-28T04:03:04.597Z,100088.77
2018-08-28T04:05:32.253Z,100085.32
2018-08-28T04:07:59.864Z,100090.94
2018-08-28T04:10:27.861Z,100101.83
2018-08-28T04:12:55.450Z,100100.20
2018-08-28T04:15:23.151Z,100117.83
2018-08-28T04:17:51.714Z,100120.45
2018-08-28T04:20:20.483Z,100122.42
2018-08-28T04:22:48.085Z,100126.75
2018-08-28T04:25:17.454Z,100129.06
2018-08-28T04:27:45.613Z,100134.75
2018-08-28T04:30:13.332Z,100134.78
2018-08-28T04:32:41.034Z,100143.73
2018-08-28T04:35:08.605Z,100144.08
2018-08-28T04:37:36.223Z,100136.80
2018-08-28T04:40:04.581Z,100144.11
2018-08-28T04:42:32.273Z,100142.94
2018-08-28T04:44:59.882Z,100153.72
2018-08-28T04:47:27.541Z,100149.16
2018-08-28T04:49:55.139Z,100145.90
2018-08-28T04:52:22.766Z,100151.17
2018-08-28T04:54:50.431Z,100149.30
2018-08-28T04:57:18.079Z,100159.37
2018-08-28T04:59:45.641Z,100159.03
2018-08-28T05:02:13.387Z,100153.75
2018-08-28T05:04:41.723Z,100163.81
2018-08-28T05:07:09.699Z,100158.30
2018-08-28T05:09:37.377Z,100156.02
2018-08-28T05:12:05.085Z,100151.20
2018-08-28T05:14:32.801Z,100167.98
2018-08-28T05:17:00.462Z,100170.64
2018-08-28T05:19:28.210Z,100163.66
2018-08-28T05:21:55.797Z,100164.17
2018-08-28T05:24:23.405Z,100169.99
2018-08-28T05:26:51.658Z,100171.34
2018-08-28T05:29:19.461Z,100174.66
2018-08-28T05:31:47.136Z,100177.32
2018-08-28T05:34:14.770Z,100176.31
2018-08-28T05:36:42.433Z,100174.81
2018-08-28T05:39:10.093Z,100182.80
2018-08-28T05:41:37.784Z,100184.11
2018-08-28T05:44:05.470Z,100178.47
2018-08-28T05:46:33.134Z,100182.80
2018-08-28T05:49:00.817Z,100185.94
2018-08-28T05:51:28.578Z,100186.77
2018-08-28T05:53:56.208Z,100186.09
2018-08-28T05:56:23.888Z,100195.06
2018-08-28T05:58:51.571Z,100150.52
2018-08-28T06:01:19.310Z,100199.55
2018-08-28T06:03:47.002Z,100202.73
2018-08-28T06:06:14.620Z,100205.88
2018-08-28T06:08:42.395Z,100203.05
2018-08-28T06:11:10.017Z,100218.47
2018-08-28T06:13:37.746Z,100217.15
2018-08-28T06:16:05.447Z,100214.82
2018-08-28T06:18:33.121Z,100217.23
2018-08-28T06:21:00.729Z,100214.98
2018-08-28T06:23:28.570Z,100212.38
2018-08-28T06:25:56.277Z,100217.04
2018-08-28T06:28:23.946Z,100215.38
2018-08-28T06:30:51.606Z,100217.23
2018-08-28T06:33:19.301Z,100216.41
2018-08-28T06:35:46.947Z,100220.03
2018-08-28T06:38:14.621Z,100220.27
2018-08-28T06:40:42.255Z,100216.09
2018-08-28T06:43:09.901Z,100220.88
2018-08-28T06:45:37.537Z,100227.23
2018-08-28T06:48:05.270Z,100222.73
2018-08-28T06:50:32.847Z,100225.50
2018-08-28T06:53:00.469Z,100230.03
2018-08-28T06:55:28.167Z,100230.67
2018-08-28T06:57:55.851Z,100226.77
2018-08-28T07:00:23.491Z,100228.08
2018-08-28T07:02:51.182Z,100232.67
2018-08-28T07:05:18.889Z,100237.28
2018-08-28T07:07:46.471Z,100236.84
2018-08-28T07:10:14.187Z,100238.75
2018-08-28T07:12:41.786Z,100233.16
2018-08-28T07:15:09.479Z,100242.29
2018-08-28T07:17:37.110Z,100241.41
2018-08-28T07:20:05.170Z,100246.24
2018-08-28T07:22:32.809Z,100245.11
2018-08-28T07:25:00.438Z,100259.36
2018-08-28T07:27:28.020Z,100245.92
2018-08-28T07:29:55.639Z,100255.13
2018-08-28T07:32:23.185Z,100254.45
2018-08-28T07:34:50.924Z,100264.91
2018-08-28T07:37:18.561Z,100269.09
2018-08-28T07:39:46.187Z,100261.95
2018-08-28T07:42:13.823Z,100271.55
2018-08-28T07:44:41.573Z,100272.71
2018-08-28T07:47:09.256Z,100268.05
2018-08-28T07:49:36.889Z,100264.52
2018-08-28T07:52:04.529Z,100267.42
2018-08-28T07:54:32.227Z,100277.16
2018-08-28T07:56:59.831Z,100278.27
2018-08-28T07:59:27.467Z,100279.30
2018-08-28T08:01:55.201Z,100274.53
2018-08-28T08:04:22.868Z,100281.22
2018-08-28T08:06:50.457Z,100285.17
2018-08-28T08:09:18.535Z,100280.46
2018-08-28T08:11:46.251Z,100286.19
2018-08-28T08:14:13.931Z,100293.63
2018-08-28T08:16:41.530Z,100299.10
2018-08-28T08:19:09.194Z,100302.04
2018-08-28T08:21:36.836Z,100303.86
2018-08-28T08:24:04.518Z,100304.70
2018-08-28T08:26:32.340Z,100296.80
2018-08-28T08:29:00.044Z,100300.47
2018-08-28T08:31:27.663Z,100299.36
2018-08-28T08:33:55.257Z,100295.80
2018-08-28T08:36:22.823Z,100305.24
2018-08-28T08:38:50.455Z,100301.53
2018-08-28T08:41:18.165Z,100300.45
2018-08-28T08:43:45.811Z,100306.30
2018-08-28T08:46:13.443Z,100306.02
2018-08-28T08:48:41.070Z,100310.33
2018-08-28T08:51:08.767Z,100309.26
2018-08-28T08:53:36.389Z,100306.42
2018-08-28T08:56:04.073Z,100314.00
2018-08-28T08:58:31.663Z,100315.63
2018-08-28T09:00:59.373Z,100314.81
2018-08-28T09:03:26.914Z,100309.86
2018-08-28T09:05:54.761Z,100313.09
2018-08-28T09:08:22.441Z,100320.77
2018-08-28T09:10:50.041Z,100315.95
2018-08-28T09:13:17.817Z,100314.24
2018-08-28T09:15:45.508Z,100309.91
2018-08-28T09:18:13.138Z,100323.06
2018-08-28T09:20:40.694Z,100317.41
2018-08-28T09:23:08.299Z,100318.97
2018-08-28T09:25:35.872Z,100309.49
2018-08-28T09:28:03.614Z,100314.96
2018-08-28T09:30:31.234Z,100317.47
2018-08-28T09:32:58.814Z,100318.39
2018-08-28T09:35:26.466Z,100316.69
2018-08-28T09:37:54.094Z,100310.21
2018-08-28T09:40:21.671Z,100314.91
2018-08-28T09:42:49.301Z,100313.05
2018-08-28T09:45:16.952Z,100318.05
2018-08-28T09:47:44.545Z,100313.14
2018-08-28T09:50:12.212Z,100317.90
2018-08-28T09:52:39.771Z,100311.34
2018-08-28T09:55:07.435Z,100329.67
2018-08-28T09:57:35.088Z,100323.33
2018-08-28T10:00:02.724Z,100315.00
2018-08-28T10:02:30.670Z,100315.94
2018-08-28T10:04:58.540Z,100321.52
2018-08-28T10:07:25.921Z,100316.89
2018-08-28T10:09:53.491Z,100316.64
2018-08-28T10:12:21.143Z,100320.06
2018-08-28T10:14:48.777Z,100326.00
2018-08-28T10:17:16.451Z,100326.73
2018-08-28T10:19:44.047Z,100319.38
2018-08-28T10:22:11.705Z,100317.30
2018-08-28T10:24:39.295Z,100319.80
2018-08-28T10:27:06.883Z,100314.86
2018-08-28T10:29:34.548Z,100316.20
2018-08-28T10:32:02.171Z,100312.82
2018-08-28T10:34:29.741Z,100310.64
2018-08-28T10:36:57.410Z,100311.87
2018-08-28T10:39:25.004Z,100310.55
2018-08-28T10:41:52.600Z,100316.72
2018-08-28T10:44:20.264Z,100310.66
2018-08-28T10:46:48.046Z,100314.61
2018-08-28T10:49:15.563Z,100305.39
2018-08-28T10:51:43.224Z,100310.02
2018-08-28T10:54:10.842Z,100309.57
2018-08-28T10:56:38.490Z,100308.11
2018-08-28T10:59:06.114Z,100310.56
2018-08-28T11:01:33.761Z,100313.76
2018-08-28T11:04:01.514Z,100309.14
2018-08-28T11:06:29.126Z,100315.14
2018-08-28T11:08:56.734Z,100318.50
2018-08-28T11:11:24.349Z,100324.47
2018-08-28T11:13:51.978Z,100329.34
2018-08-28T11:16:19.570Z,100321.30
2018-08-28T11:18:47.211Z,100312.30
2018-08-28T11:21:15.991Z,100316.69
2018-08-28T11:23:43.641Z,100311.50
2018-08-28T11:26:11.362Z,100319.09
2018-08-28T11:28:39.005Z,100316.62
2018-08-28T11:31:06.699Z,100318.41
2018-08-28T11:33:34.515Z,100315.98
2018-08-28T11:36:02.059Z,100316.02
2018-08-28T11:38:29.757Z,100323.45
2018-08-28T11:40:57.315Z,100320.75
2018-08-28T11:43:24.954Z,100310.16
2018-08-28T11:45:53.257Z,100318.09
2018-08-28T11:48:20.858Z,100316.80
2018-08-28T11:50:48.490Z,100321.70
2018-08-28T11:53:16.328Z,100308.54
2018-08-28T11:55:43.870Z,100319.73
2018-08-28T11:58:11.523Z,100318.44
2018-08-28T12:00:39.131Z,100312.33
2018-08-28T12:03:06.833Z,100315.23
2018-08-28T12:05:34.556Z,100311.87
2018-08-28T12:08:02.206Z,100312.54
2018-08-28T12:10:29.846Z,100302.90
2018-08-28T12:12:57.584Z,100311.86
2018-08-28T12:15:25.220Z,100318.73
2018-08-28T12:17:52.852Z,100311.75
2018-08-28T12:20:20.529Z,100310.98
2018-08-28T12:22:48.093Z,100314.13
2018-08-28T12:25:15.742Z,100307.50
2018-08-28T12:27:43.395Z,100311.69
2018-08-28T12:30:11.359Z,100314.45
2018-08-28T12:32:38.946Z,100305.67
2018-08-28T12:35:06.890Z,100304.17
2018-08-28T12:37:34.680Z,100298.73
2018-08-28T12:40:02.448Z,100293.47
2018-08-28T12:42:30.601Z,100290.42
2018-08-28T12:44:58.294Z,100288.41
2018-08-28T12:47:25.969Z,100291.44
2018-08-28T12:49:53.597Z,100288.45
2018-08-28T12:52:21.243Z,100290.54
2018-08-28T12:54:49.136Z,100293.58
2018-08-28T12:57:16.983Z,100284.16
2018-08-28T12:59:44.605Z,100290.98
2018-08-28T13:02:12.396Z,100283.93
2018-08-28T13:04:39.937Z,100280.47
2018-08-28T13:07:07.568Z,100282.25
2018-08-28T13:09:35.340Z,100282.20
2018-08-28T13:12:03.106Z,100279.30
2018-08-28T13:14:31.053Z,100282.56
2018-08-28T13:16:58.891Z,100277.60
2018-08-28T13:19:26.601Z,100279.15
2018-08-28T13:21:54.198Z,100285.97
2018-08-28T13:24:21.893Z,100289.22
2018-08-28T13:26:49.606Z,100295.13
2018-08-28T13:29:17.270Z,100293.54
2018-08-28T13:31:44.884Z,100281.33
2018-08-28T13:34:12.590Z,100277.44
2018-08-28T13:36:40.194Z,100273.98
2018-08-28T13:39:07.822Z,100284.52
2018-08-28T13:41:35.651Z,100273.69
2018-08-28T13:44:03.264Z,100275.98
2018-08-28T13:46:30.937Z,100266.73
2018-08-28T13:48:58.593Z,100268.69
2018-08-28T13:51:26.269Z,100275.50
2018-08-28T13:53:54.125Z,100262.70
2018-08-28T13:56:21.611Z,100273.14
2018-08-28T13:58:49.195Z,100260.35
2018-08-28T14:01:16.938Z,100256.73
2018-08-28T14:03:44.611Z,100260.97
2018-08-28T14:06:12.233Z,100263.68
2018-08-28T14:08:39.854Z,100264.59
2018-08-28T14:11:07.508Z,100275.87
2018-08-28T14:13:35.235Z,100266.06
2018-08-28T14:16:02.833Z,100264.45
2018-08-28T14:18:30.682Z,100267.83
2018-08-28T14:20:58.438Z,100264.53
2018-08-28T14:23:26.168Z,100268.48
2018-08-28T14:25:53.920Z,100260.09
2018-08-28T14:28:21.518Z,100263.02
2018-08-28T14:30:49.239Z,100262.56
2018-08-28T14:33:16.928Z,100255.19
2018-08-28T14:35:44.692Z,100257.13
2018-08-28T14:38:12.225Z,100249.66
2018-08-28T14:40:39.922Z,100255.86
2018-08-28T14:43:07.559Z,100260.33
2018-08-28T14:45:35.210Z,100255.89
2018-08-28T14:48:03.026Z,100257.42
2018-08-28T14:50:31.141Z,100255.11
2018-08-28T14:52:58.738Z,100249.61
2018-08-28T14:55:26.384Z,100246.27
2018-08-28T14:57:54.106Z,100240.98
2018-08-28T15:00:21.736Z,100243.08
2018-08-28T15:02:49.364Z,100247.00
2018-08-28T15:05:16.937Z,100247.66
2018-08-28T15:07:44.582Z,100249.23
2018-08-28T15:10:12.267Z,100242.73
2018-08-28T15:12:39.974Z,100251.03
2018-08-28T15:15:07.678Z,100249.43
2018-08-28T15:17:35.402Z,100250.63
2018-08-28T15:20:03.188Z,100229.95
2018-08-28T15:22:31.034Z,100229.28
2018-08-28T15:24:58.970Z,100230.42
2018-08-28T15:27:26.645Z,100234.28
2018-08-28T15:29:54.260Z,100229.09
2018-08-28T15:32:21.935Z,100229.41
2018-08-28T15:34:49.591Z,100224.58
2018-08-28T15:37:17.321Z,100228.69
2018-08-28T15:39:44.950Z,100220.80
2018-08-28T15:42:13.018Z,100222.45
2018-08-28T15:44:40.641Z,100218.95
2018-08-28T15:47:08.348Z,100213.02
2018-08-28T15:49:36.006Z,100221.97
2018-08-28T15:52:03.738Z,100215.62
2018-08-28T15:54:31.450Z,100219.26
2018-08-28T15:56:59.098Z,100219.97
2018-08-28T15:59:26.860Z,100212.75
2018-08-28T16:01:54.819Z,100214.50
2018-08-28T16:04:22.448Z,100208.89
2018-08-28T16:06:51.327Z,100215.02
2018-08-28T16:09:18.948Z,100215.52
2018-08-28T16:11:47.124Z,100212.98
2018-08-28T16:14:14.906Z,100210.16
2018-08-28T16:16:43.180Z,100209.97
2018-08-28T16:19:10.888Z,100214.34
2018-08-28T16:21:43.511Z,100216.70
2018-08-28T16:24:11.195Z,100212.48
2018-08-28T16:26:39.101Z,100210.56
2018-08-28T16:29:07.081Z,100209.61
2018-08-28T16:31:34.989Z,100207.59
2018-08-28T16:34:02.699Z,100208.85
2018-08-28T16:36:31.030Z,100208.84
2018-08-28T16:38:58.771Z,100210.97
2018-08-28T16:41:26.684Z,100207.30
2018-08-28T16:43:54.415Z,100205.84
2018-08-28T16:46:22.287Z,100192.70
2018-08-28T16:48:49.943Z,100205.00
2018-08-28T16:51:17.612Z,100203.64
2018-08-28T16:53:45.375Z,100195.82
2018-08-28T16:56:13.087Z,100189.26
2018-08-28T16:58:40.684Z,100189.05
2018-08-28T17:01:08.279Z,100193.36
2018-08-28T17:03:35.973Z,100194.34
2018-08-28T17:06:03.622Z,100198.75
2018-08-28T17:08:31.250Z,100203.61
2018-08-28T17:10:58.916Z,100203.97
2018-08-28T17:13:26.552Z,100198.42
2018-08-28T17:15:54.208Z,100192.86
2018-08-28T17:18:22.467Z,100194.84
2018-08-28T17:20:50.194Z,100193.75
2018-08-28T17:23:17.982Z,100195.72
2018-08-28T17:25:45.823Z,100199.95
2018-08-28T17:28:13.417Z,100198.11
2018-08-28T17:30:41.114Z,100201.59
2018-08-28T17:33:08.792Z,100200.47
2018-08-28T17:35:36.477Z,100199.00
2018-08-28T17:38:04.585Z,100199.37
2018-08-28T17:40:32.204Z,100203.46
2018-08-28T17:42:59.810Z,100200.52
2018-08-28T17:45:27.539Z,100200.61
2018-08-28T17:47:55.348Z,100201.70
2018-08-28T17:50:23.142Z,100205.07
2018-08-28T17:52:50.808Z,100206.52
2018-08-28T17:55:19.541Z,100210.77
2018-08-28T17:57:47.488Z,100208.41
2018-08-28T18:00:15.402Z,100216.42
2018-08-28T18:02:43.270Z,100213.70
2018-08-28T18:05:11.046Z,100218.73
2018-08-28T18:07:38.804Z,100219.73
2018-08-28T18:10:06.698Z,100222.38
2018-08-28T18:12:34.659Z,100224.23
2018-08-28T18:15:02.424Z,100226.16
2018-08-28T18:17:30.158Z,100219.64
2018-08-28T18:19:58.164Z,100222.36
2018-08-28T18:22:26.128Z,100222.23
2018-08-28T18:24:54.093Z,100218.41
2018-08-28T18:27:22.005Z,100220.90
2018-08-28T18:29:50.099Z,100226.29
2018-08-28T18:32:17.863Z,100228.54
2018-08-28T18:34:45.652Z,100228.09
2018-08-28T18:37:13.629Z,100225.91
2018-08-28T18:39:41.399Z,100223.45
2018-08-28T18:42:09.231Z,100230.83
2018-08-28T18:44:37.111Z,100232.50
2018-08-28T18:47:05.082Z,100231.86
2018-08-28T18:49:32.907Z,100236.84
2018-08-28T18:52:00.814Z,100243.34
2018-08-28T18:54:28.613Z,100243.65
2018-08-28T18:56:56.638Z,100244.18
2018-08-28T18:59:24.498Z,100238.69
2018-08-28T19:01:52.444Z,100240.00
2018-08-28T19:04:20.421Z,100237.48
2018-08-28T19:06:48.254Z,100237.98
2018-08-28T19:09:16.845Z,100237.94
2018-08-28T19:11:44.707Z,100243.91
2018-08-28T19:14:12.646Z,100247.19
2018-08-28T19:16:40.428Z,100242.17
2018-08-28T19:19:09.367Z,100236.02
2018-08-28T19:21:37.147Z,100244.79
2018-08-28T19:24:05.054Z,100245.44
2018-08-28T19:26:32.793Z,100243.42
2018-08-28T19:29:00.575Z,100244.06
2018-08-28T19:31:28.358Z,100239.70
2018-08-28T19:33:56.169Z,100238.81
2018-08-28T19:36:24.025Z,100237.62
2018-08-28T19:38:52.052Z,100233.64
2018-08-28T19:41:20.008Z,100232.60
2018-08-28T19:43:48.139Z,100224.33
2018-08-28T19:46:15.946Z,100228.94
2018-08-28T19:48:43.858Z,100223.24
2018-08-28T19:51:11.668Z,100221.35
2018-08-28T19:53:41.619Z,100221.20
2018-08-28T19:56:09.954Z,100216.88
2018-08-28T19:58:37.776Z,100223.99
2018-08-28T20:01:05.778Z,100221.48
2018-08-28T20:03:33.482Z,100219.81
2018-08-28T20:06:01.462Z,100213.50
2018-08-28T20:08:29.516Z,100213.11
2018-08-28T20:10:57.254Z,100212.58
2018-08-28T20:13:25.006Z,100218.52
2018-08-28T20:15:52.732Z,100213.80
2018-08-28T20:18:20.429Z,100214.91
2018-08-28T20:20:48.219Z,100213.73
2018-08-28T20:23:15.915Z,100214.84
2018-08-28T20:25:43.714Z,100214.45
2018-08-28T20:28:11.376Z,100214.22
2018-08-28T20:30:39.276Z,100217.52
2018-08-28T20:33:07.113Z,100215.95
2018-08-28T20:35:34.815Z,100224.17
2018-08-28T20:38:02.580Z,100219.28
2018-08-28T20:40:30.391Z,100211.27
2018-08-28T20:42:58.568Z,100221.84
2018-08-28T20:45:26.327Z,100210.03
2018-08-28T20:47:54.033Z,100214.95
2018-08-28T20:50:21.767Z,100210.63
2018-08-28T20:52:49.516Z,100211.09
2018-08-28T20:55:17.189Z,100210.75
2018-08-28T20:57:44.884Z,100211.52
2018-08-28T21:00:12.632Z,100214.77
2018-08-28T21:02:40.466Z,100210.63
2018-08-28T21:05:08.183Z,100207.48
2018-08-28T21:07:35.941Z,100214.02
2018-08-28T21:10:03.949Z,100216.39
2018-08-28T21:12:31.707Z,100218.16
2018-08-28T21:14:59.472Z,100215.94
2018-08-28T21:17:27.202Z,100221.05
2018-08-28T21:19:55.036Z,100217.67
2018-08-28T21:22:22.702Z,100221.92
2018-08-28T21:24:50.406Z,100217.91
2018-08-28T21:27:18.053Z,100215.37
2018-08-28T21:29:45.746Z,100216.97
2018-08-28T21:32:13.430Z,100209.27
2018-08-28T21:34:41.129Z,100204.55
2018-08-28T21:37:09.017Z,100213.67
2018-08-28T21:39:36.780Z,100214.75
2018-08-28T21:42:04.526Z,100212.59
2018-08-28T21:44:32.167Z,100216.30
2018-08-28T21:46:59.940Z,100209.02
2018-08-28T21:49:27.553Z,100211.76
2018-08-28T21:51:55.217Z,100217.40
2018-08-28T21:54:22.881Z,100212.52
2018-08-28T21:56:50.591Z,100211.28
2018-08-28T21:59:18.334Z,100212.48
2018-08-28T22:01:46.048Z,100210.97
2018-08-28T22:04:13.671Z,100201.50
2018-08-28T22:06:47.141Z,100216.34
2018-08-28T22:09:14.823Z,100212.35
2018-08-28T22:11:42.535Z,100217.85
2018-08-28T22:14:10.231Z,100216.00
2018-08-28T22:16:38.035Z,100211.41
2018-08-28T22:19:05.753Z,100207.59
2018-08-28T22:21:33.408Z,100213.31
2018-08-28T22:24:01.195Z,100217.13
2018-08-28T22:26:28.947Z,100209.81
2018-08-28T22:28:56.629Z,100212.88
2018-08-28T22:31:24.467Z,100205.73
2018-08-28T22:33:52.153Z,100203.84
2018-08-28T22:36:19.893Z,100201.06
2018-08-28T22:38:47.572Z,100201.97
2018-08-28T22:41:15.296Z,100205.88
2018-08-28T22:43:43.019Z,100201.95
2018-08-28T22:46:10.702Z,100205.43
2018-08-28T22:48:38.368Z,100202.11
2018-08-28T22:51:06.103Z,100197.09
2018-08-28T22:53:33.814Z,100198.41
2018-08-28T22:56:01.461Z,100205.44
2018-08-28T22:58:29.099Z,100200.47
2018-08-28T23:00:56.743Z,100194.52
2018-08-28T23:03:24.454Z,100196.67
2018-08-28T23:05:52.145Z,100194.91
2018-08-28T23:08:19.892Z,100194.97
2018-08-28T23:10:47.552Z,100192.48
2018-08-28T23:13:15.277Z,100196.45
2018-08-28T23:15:43.035Z,100194.29
2018-08-28T23:18:10.826Z,100191.32
2018-08-28T23:20:38.471Z,100197.27
2018-08-28T23:23:06.491Z,100196.36
2018-08-28T23:25:34.227Z,100191.62
2018-08-28T23:28:01.967Z,100189.34
2018-08-28T23:30:29.788Z,100186.95
2018-08-28T23:32:57.429Z,100184.92
2018-08-28T23:35:25.058Z,100179.45
2018-08-28T23:37:52.679Z,100183.66
2018-08-28T23:40:20.317Z,100183.11
2018-08-28T23:42:48.001Z,100183.00
2018-08-28T23:45:15.637Z,100175.38
2018-08-28T23:47:43.302Z,100175.38
2018-08-28T23:50:10.976Z,100172.18
2018-08-28T23:52:38.728Z,100168.34
2018-08-28T23:55:06.435Z,100165.00
2018-08-28T23:57:34.195Z,100166.60
